world map with KCO marked

KCO - Airport

This information may not be accurate or current and is not valid for navigation or flight planning. No warranty of fitness for any purpose is made or implied.

flag of Turkey

Donate via PayPal

Additional information is available on the NEW Great Circle Mapper

Location
City:  Köseköy, Kocaeli, Turkey
Name:Cengiz Topel NAS
ICAO / IATA:LTBQ / KCO

Details
Type:Airport (Aerodrome, Airfield)
Use:Public/Civil, Military
Latitude:40°44'06"N (40.735028)
Longitude:30°05'00"E (30.083336)
Datum:WGS 1984
Elevation:182 ft (55 m)
Runways:1
Longest:9842 × 98 ft (3000 × 30 m)

Time
Timezone:UTC+3 (DST+5)
Local Time:

Weather
METAR:LTBQ  041350Z 11006KT 080V150 CAVOK 20/02 Q1019 NOSIG RMK RWY09 10009KT
TAF:LTBQ  (expired)

Related Locations
Nearby:
Farthest:RVV: 11262 mi / 18124 km
Raivavae, Tubuai Islands, Austral Islands, PF

Find:

   beyond  
but within

Other Information
Maps:
Sources:

  


 


Great Circle Mapper   Great Circle Mapper
Great Circle Mapper FAQ   Great Circle Mapper FAQ
  Karl's Home Page
KLS²   KLS² Home
   GC on Facebook
Airlines of the World   Airlines of the World
Donate via PayPal


Copyright © 2004-2019, Karl L. Swartz. All rights reserved.
All trademarks mentioned herein belong to their respective owners.

Please see credits for attribution and copyright information.

Karl Swartz <karl@kls2.com>
  Powered by FreeBSD
Valid HTML 4.01!
Labeled with ICRA
hCard Microformat
Geo Microformat